Time;durP1;ratioP1;P1;durP2;ratioP2;P2;SDS_P1;SDS_P2;PMS_P1;PMS_P2;Temp;Humidity;BMP_temperature;BMP_pressure;BME280_temperature;BME280_humidity;BME280_pressure;Samples;Min_cycle;Max_cycle;Signal;HPM_P1;HPM_P2
2022/08/05 00:01:45;;;;;;;1.95;1.67;;;23.40;99.90;;;;;;5027235;28;20207;-79
2022/08/05 00:04:18;;;;;;;4.57;2.40;;;23.50;99.90;;;;;;5015791;28;20222;-80
2022/08/05 00:06:46;;;;;;;2.55;2.28;;;23.50;99.90;;;;;;5013582;28;20220;-80
2022/08/05 00:09:14;;;;;;;2.95;2.08;;;23.50;99.90;;;;;;5014253;28;20584;-80
2022/08/05 00:11:42;;;;;;;3.15;2.00;;;23.40;99.90;;;;;;5013316;28;20649;-80
2022/08/05 00:14:09;;;;;;;4.82;2.67;;;23.40;99.90;;;;;;5013593;28;20200;-79
2022/08/05 00:16:36;;;;;;;4.28;2.42;;;23.40;99.90;;;;;;5010478;28;20227;-79
2022/08/05 00:19:05;;;;;;;3.67;2.40;;;23.50;99.90;;;;;;5012606;28;20207;-79
2022/08/05 00:21:34;;;;;;;4.65;2.40;;;23.40;99.90;;;;;;5013775;28;20207;-79
2022/08/05 00:24:01;;;;;;;2.40;2.10;;;23.50;99.90;;;;;;5014104;28;20219;-79
2022/08/05 00:26:29;;;;;;;4.40;2.15;;;23.40;99.90;;;;;;5007630;28;20212;-79
2022/08/05 00:28:56;;;;;;;2.95;2.28;;;23.30;99.90;;;;;;5028598;28;20200;-80
2022/08/05 00:31:24;;;;;;;4.45;2.30;;;23.30;99.90;;;;;;5016774;28;20196;-80
2022/08/05 00:33:51;;;;;;;3.35;2.13;;;23.30;99.90;;;;;;5015452;28;20559;-80
2022/08/05 00:36:18;;;;;;;3.28;2.40;;;23.30;99.90;;;;;;5013427;28;20258;-79
2022/08/05 00:38:47;;;;;;;3.53;2.42;;;23.30;99.90;;;;;;5011060;28;20210;-79
2022/08/05 00:41:26;;;;;;;2.97;2.08;;;23.20;99.90;;;;;;5015894;28;20568;-79
2022/08/05 00:43:54;;;;;;;3.85;2.25;;;23.20;99.90;;;;;;5019248;28;20215;-79
2022/08/05 00:46:21;;;;;;;3.10;2.42;;;23.10;99.90;;;;;;5017195;28;20227;-79
2022/08/05 00:48:49;;;;;;;2.33;2.13;;;23.00;99.90;;;;;;5016100;28;20200;-79
2022/08/05 00:51:17;;;;;;;2.97;2.25;;;22.80;99.90;;;;;;5017424;28;20202;-79
2022/08/05 00:53:44;;;;;;;3.05;2.40;;;22.80;99.90;;;;;;5011450;28;20215;-79
2022/08/05 00:56:15;;;;;;;4.18;2.10;;;22.80;99.90;;;;;;5016734;28;20219;-79
2022/08/05 00:58:42;;;;;;;3.22;2.47;;;23.00;99.90;;;;;;5015228;28;20195;-79
2022/08/05 01:01:10;;;;;;;3.83;2.40;;;22.90;99.90;;;;;;5015589;28;20210;-79
2022/08/05 01:03:38;;;;;;;3.67;2.33;;;23.10;99.90;;;;;;5007648;28;20222;-79
2022/08/05 01:06:06;;;;;;;4.63;2.83;;;22.80;99.90;;;;;;5009982;28;20219;-79
2022/08/05 01:08:35;;;;;;;3.88;2.72;;;22.70;99.90;;;;;;5013765;28;20207;-79
2022/08/05 01:11:06;;;;;;;3.92;2.33;;;22.70;99.90;;;;;;5017538;28;20192;-79
2022/08/05 01:13:44;;;;;;;4.25;2.55;;;23.00;99.90;;;;;;5017724;28;20581;-79
2022/08/05 01:16:20;;;;;;;3.03;2.50;;;23.10;99.90;;;;;;5027012;28;20219;-79
2022/08/05 01:18:53;;;;;;;3.03;2.25;;;23.20;99.90;;;;;;5014384;28;20547;-79
2022/08/05 01:21:48;;;;;;;3.53;2.67;;;23.20;99.90;;;;;;5016403;28;20203;-78
2022/08/05 01:24:33;;;;;;;3.60;2.63;;;23.10;99.90;;;;;;5014404;28;20219;-79
2022/08/05 01:27:09;;;;;;;4.50;2.35;;;23.20;99.90;;;;;;5029999;28;20238;-79
2022/08/05 01:29:42;;;;;;;4.97;2.55;;;23.30;99.90;;;;;;5014683;28;20199;-79
2022/08/05 01:32:15;;;;;;;4.55;2.50;;;23.20;99.90;;;;;;5016002;28;20196;-79
2022/08/05 01:34:48;;;;;;;4.45;2.70;;;23.20;99.90;;;;;;5014909;28;20562;-79
2022/08/05 01:37:19;;;;;;;3.88;2.30;;;23.20;99.90;;;;;;5011103;28;20216;-79
2022/08/05 01:39:49;;;;;;;3.40;2.85;;;23.40;99.90;;;;;;5011543;28;20200;-79
2022/08/05 01:42:20;;;;;;;5.53;2.42;;;23.30;99.90;;;;;;5013055;28;20196;-79
2022/08/05 01:44:50;;;;;;;4.75;2.33;;;23.20;99.90;;;;;;5025505;28;20223;-79
2022/08/05 01:47:20;;;;;;;3.33;2.15;;;23.10;99.90;;;;;;5013922;28;20215;-79
2022/08/05 01:49:50;;;;;;;3.67;2.92;;;23.30;99.90;;;;;;5015181;28;20282;-79
2022/08/05 01:52:20;;;;;;;3.08;2.60;;;23.10;99.90;;;;;;5016363;28;20196;-79
2022/08/05 01:54:52;;;;;;;4.55;2.53;;;23.20;99.90;;;;;;5016029;28;20196;-79
2022/08/05 01:57:25;;;;;;;3.25;2.95;;;23.10;99.90;;;;;;5014923;28;20234;-78
2022/08/05 01:59:59;;;;;;;3.25;2.65;;;23.10;99.90;;;;;;5007390;28;20196;-79
2022/08/05 02:02:29;;;;;;;2.80;2.22;;;23.00;99.90;;;;;;5027101;28;20205;-79
2022/08/05 02:04:59;;;;;;;3.53;2.47;;;23.10;99.90;;;;;;5011814;28;20235;-79
2022/08/05 02:07:27;;;;;;;3.28;2.33;;;23.30;99.90;;;;;;5015475;28;20203;-79
2022/08/05 02:09:55;;;;;;;3.83;2.72;;;23.20;99.90;;;;;;5016897;28;20207;-79
2022/08/05 02:12:31;;;;;;;2.60;2.40;;;23.30;99.90;;;;;;5032718;28;20203;-79
2022/08/05 02:15:07;;;;;;;4.70;2.45;;;23.30;99.90;;;;;;5015423;28;20195;-79
2022/08/05 02:17:39;;;;;;;3.85;2.80;;;23.20;99.90;;;;;;5011829;28;20704;-79
2022/08/05 02:20:14;;;;;;;3.70;2.35;;;23.20;99.90;;;;;;5010351;28;20204;-78
2022/08/05 02:22:44;;;;;;;2.60;2.40;;;23.20;99.90;;;;;;5015672;28;20203;-79
2022/08/05 02:25:17;;;;;;;4.57;2.63;;;23.10;99.90;;;;;;5016819;28;20558;-79
2022/08/05 02:27:47;;;;;;;3.80;2.10;;;23.10;99.90;;;;;;5013222;28;20207;-79
2022/08/05 02:30:17;;;;;;;4.30;2.72;;;22.80;99.90;;;;;;5015606;28;20210;-79
2022/08/05 02:32:50;;;;;;;4.45;2.92;;;22.70;99.90;;;;;;5015785;28;20192;-79
2022/08/05 02:35:21;;;;;;;4.15;2.80;;;22.70;99.90;;;;;;5007064;28;20230;-79
2022/08/05 02:37:51;;;;;;;6.25;3.40;;;22.70;99.90;;;;;;5012201;28;20200;-79
2022/08/05 02:40:20;;;;;;;4.82;2.47;;;22.50;99.90;;;;;;5015799;28;20700;-79
2022/08/05 02:42:50;;;;;;;6.07;3.17;;;22.70;99.90;;;;;;5015864;28;20200;-79
2022/08/05 02:45:20;;;;;;;4.50;2.83;;;22.50;99.90;;;;;;5015371;28;20216;-79
2022/08/05 02:47:49;;;;;;;5.45;3.53;;;22.30;99.90;;;;;;5014802;28;20791;-79
2022/08/05 02:50:23;;;;;;;3.70;3.17;;;22.30;99.90;;;;;;5011527;28;20203;-79
2022/08/05 02:52:51;;;;;;;4.57;3.00;;;22.30;99.90;;;;;;5015953;28;20203;-79
2022/08/05 02:55:20;;;;;;;4.57;3.35;;;22.50;99.90;;;;;;5007235;28;20216;-79
2022/08/05 02:57:49;;;;;;;5.55;3.70;;;22.10;99.90;;;;;;5008646;28;20209;-79
2022/08/05 03:00:18;;;;;;;9.82;3.35;;;21.80;99.90;;;;;;5011195;28;20203;-79
2022/08/05 03:02:49;;;;;;;4.80;3.28;;;21.80;99.90;;;;;;5017202;28;20195;-79
2022/08/05 03:05:18;;;;;;;5.07;3.78;;;21.90;99.90;;;;;;5016827;28;20223;-79
2022/08/05 03:07:46;;;;;;;4.10;3.70;;;22.20;99.90;;;;;;5014929;28;20200;-79
2022/08/05 03:10:15;;;;;;;3.30;2.95;;;22.50;99.90;;;;;;5015311;28;20210;-79
2022/08/05 03:12:43;;;;;;;3.70;2.80;;;22.60;99.90;;;;;;5015696;28;20199;-79
2022/08/05 03:15:11;;;;;;;4.95;3.83;;;22.50;99.90;;;;;;5015774;28;20195;-79
2022/08/05 03:17:40;;;;;;;5.57;3.88;;;22.10;99.90;;;;;;5005046;28;20550;-78
2022/08/05 03:20:09;;;;;;;4.95;3.17;;;22.00;99.90;;;;;;5015688;28;20218;-78
2022/08/05 03:22:36;;;;;;;4.28;3.42;;;22.30;99.90;;;;;;5014733;28;20218;-79
2022/08/05 03:25:04;;;;;;;5.25;3.90;;;22.60;99.90;;;;;;5011226;28;20200;-79
2022/08/05 03:27:32;;;;;;;6.22;4.40;;;22.10;99.90;;;;;;5007284;28;20208;-79
2022/08/05 03:30:04;;;;;;;5.93;4.43;;;21.90;99.90;;;;;;5013871;28;20207;-79
2022/08/05 03:32:32;;;;;;;4.50;3.90;;;21.90;99.90;;;;;;5015153;28;20553;-79
2022/08/05 03:35:01;;;;;;;4.85;4.35;;;21.70;99.90;;;;;;5028049;28;20196;-79
2022/08/05 03:37:31;;;;;;;5.45;4.10;;;21.60;99.90;;;;;;5015529;28;20200;-78
2022/08/05 03:40:01;;;;;;;5.07;3.88;;;21.60;99.90;;;;;;5010901;28;20207;-79
2022/08/05 03:42:29;;;;;;;3.78;3.45;;;21.50;99.90;;;;;;5017288;28;20207;-79
2022/08/05 03:44:56;;;;;;;4.68;3.80;;;21.60;99.90;;;;;;5028551;28;20192;-79
2022/08/05 03:47:24;;;;;;;4.25;3.88;;;21.60;99.90;;;;;;5010558;28;20222;-79
2022/08/05 03:49:51;;;;;;;5.13;4.00;;;21.50;99.90;;;;;;5019083;28;20195;-78
2022/08/05 03:52:27;;;;;;;4.45;4.05;;;21.50;99.90;;;;;;5010485;28;20203;-79
2022/08/05 03:55:00;;;;;;;5.32;4.20;;;21.70;99.90;;;;;;5014562;28;20195;-79
2022/08/05 03:57:32;;;;;;;5.68;4.80;;;21.70;99.90;;;;;;5010753;28;20196;-79
2022/08/05 04:00:04;;;;;;;8.43;4.65;;;21.60;99.90;;;;;;5012592;28;20203;-78
2022/08/05 04:02:42;;;;;;;5.45;4.68;;;21.10;99.90;;;;;;5017310;28;20192;-78
2022/08/05 04:05:10;;;;;;;5.75;5.10;;;21.10;99.90;;;;;;5012192;28;20210;-78
2022/08/05 04:07:41;;;;;;;5.97;5.18;;;21.40;99.90;;;;;;5012827;28;20192;-77
2022/08/05 04:10:09;;;;;;;6.93;5.45;;;21.40;99.90;;;;;;5005632;28;20203;-77
2022/08/05 04:12:37;;;;;;;7.75;5.43;;;21.20;99.90;;;;;;5008911;28;20215;-78
2022/08/05 04:15:06;;;;;;;6.00;5.45;;;21.30;99.90;;;;;;4993934;28;20204;-78
2022/08/05 04:17:35;;;;;;;8.13;5.80;;;21.00;99.90;;;;;;5012067;28;20207;-78
2022/08/05 04:20:02;;;;;;;7.13;6.35;;;20.70;99.90;;;;;;5013096;28;20658;-78
2022/08/05 04:22:30;;;;;;;7.90;5.63;;;20.50;99.90;;;;;;5011053;28;20199;-79
2022/08/05 04:25:00;;;;;;;8.73;5.78;;;20.80;99.90;;;;;;5015229;28;20207;-78
2022/08/05 04:27:27;;;;;;;7.82;5.60;;;21.00;99.90;;;;;;5015344;28;20212;-78
2022/08/05 04:29:55;;;;;;;8.10;6.15;;;21.00;99.90;;;;;;5010448;28;20223;-78
2022/08/05 04:32:22;;;;;;;10.00;6.85;;;21.00;99.90;;;;;;5014200;28;20199;-80
2022/08/05 04:34:50;;;;;;;8.85;6.30;;;21.00;99.90;;;;;;5017775;28;20192;-80
2022/08/05 04:37:22;;;;;;;8.75;5.80;;;21.40;99.90;;;;;;5014393;28;20219;-80
2022/08/05 04:39:50;;;;;;;8.45;7.22;;;21.50;99.90;;;;;;5014699;28;20195;-81
2022/08/05 04:42:18;;;;;;;11.88;9.38;;;21.70;99.90;;;;;;5016330;28;20560;-81
2022/08/05 04:44:47;;;;;;;11.38;9.20;;;21.60;99.90;;;;;;5028498;28;20691;-80
2022/08/05 04:47:14;;;;;;;9.43;8.07;;;21.60;99.90;;;;;;5013623;28;20227;-80
2022/08/05 04:49:42;;;;;;;7.95;5.53;;;21.60;99.90;;;;;;5015595;28;20204;-80
2022/08/05 04:52:09;;;;;;;8.38;6.88;;;21.80;99.90;;;;;;5013383;28;20666;-80
2022/08/05 04:54:37;;;;;;;11.23;7.40;;;21.70;99.90;;;;;;5016479;28;20204;-80
2022/08/05 04:57:05;;;;;;;7.57;6.10;;;21.60;99.90;;;;;;5011707;28;20587;-80
2022/08/05 04:59:33;;;;;;;10.80;7.43;;;21.80;99.90;;;;;;5029486;28;20205;-80
2022/08/05 05:02:01;;;;;;;7.72;6.82;;;21.80;99.90;;;;;;5027627;28;20200;-81
2022/08/05 05:04:31;;;;;;;6.72;5.65;;;21.60;99.90;;;;;;5012563;28;20567;-80
2022/08/05 05:06:59;;;;;;;6.40;5.32;;;21.70;99.90;;;;;;5010804;28;20228;-80
2022/08/05 05:09:27;;;;;;;11.63;7.72;;;22.10;99.90;;;;;;5013366;28;20478;-80
2022/08/05 05:11:54;;;;;;;6.82;5.65;;;22.10;99.90;;;;;;5011666;28;20654;-81
2022/08/05 05:14:27;;;;;;;8.63;7.10;;;22.10;99.90;;;;;;5014123;28;20204;-81
2022/08/05 05:16:56;;;;;;;8.00;6.80;;;21.80;99.90;;;;;;5012190;28;20223;-80
2022/08/05 05:19:23;;;;;;;7.10;6.20;;;21.90;99.90;;;;;;5007575;28;20200;-81
2022/08/05 05:21:51;;;;;;;9.27;7.38;;;22.00;99.90;;;;;;5014961;28;20211;-80
2022/08/05 05:24:20;;;;;;;6.88;6.18;;;22.00;99.90;;;;;;5013183;28;20206;-78
2022/08/05 05:26:47;;;;;;;9.32;8.10;;;22.00;99.90;;;;;;5009690;28;20231;-79
2022/08/05 05:29:24;;;;;;;9.77;7.22;;;21.90;99.90;;;;;;5008829;28;20218;-79
2022/08/05 05:31:52;;;;;;;10.45;9.32;;;22.20;99.90;;;;;;5014371;28;20191;-78
2022/08/05 05:34:22;;;;;;;8.35;7.00;;;22.20;99.90;;;;;;5012575;28;20200;-78
2022/08/05 05:36:50;;;;;;;8.30;7.22;;;22.20;99.90;;;;;;5026364;28;20232;-80
2022/08/05 05:39:17;;;;;;;10.18;9.00;;;22.20;99.90;;;;;;5012410;28;20200;-81
2022/08/05 05:41:48;;;;;;;11.38;10.00;;;22.10;99.90;;;;;;5013146;28;20219;-81
2022/08/05 05:44:18;;;;;;;12.05;10.32;;;22.10;99.90;;;;;;5006846;28;20200;-81
2022/08/05 05:46:46;;;;;;;10.40;9.38;;;21.60;99.90;;;;;;5008223;28;20219;-81
2022/08/05 05:49:19;;;;;;;8.65;7.18;;;21.40;99.90;;;;;;5029374;28;20203;-81
2022/08/05 05:51:49;;;;;;;7.78;6.45;;;21.50;99.90;;;;;;5004825;28;20842;-81
2022/08/05 05:54:22;;;;;;;11.15;9.68;;;21.80;99.90;;;;;;5008174;28;20202;-81
2022/08/05 05:56:49;;;;;;;9.27;8.25;;;21.80;99.90;;;;;;5014530;28;20225;-81
2022/08/05 05:59:17;;;;;;;12.93;8.63;;;21.80;99.90;;;;;;5025716;28;20207;-80
2022/08/05 06:01:45;;;;;;;11.13;7.22;;;21.80;99.90;;;;;;5006771;28;20208;-81
2022/08/05 06:04:14;;;;;;;11.48;7.72;;;22.10;99.90;;;;;;5013746;28;20195;-80
2022/08/05 06:06:43;;;;;;;8.55;7.60;;;22.30;99.90;;;;;;5014024;28;20216;-81
2022/08/05 06:09:12;;;;;;;10.88;9.63;;;22.30;99.90;;;;;;5009305;28;20576;-81
2022/08/05 06:11:40;;;;;;;13.98;8.95;;;22.20;99.90;;;;;;5007602;28;20204;-81
2022/08/05 06:14:07;;;;;;;17.02;8.68;;;22.40;99.90;;;;;;5002842;28;21013;-80
2022/08/05 06:16:35;;;;;;;13.35;9.27;;;22.50;99.90;;;;;;5010296;28;20235;-82
2022/08/05 06:19:03;;;;;;;12.27;8.48;;;22.50;99.90;;;;;;5010272;28;20590;-81
2022/08/05 06:21:31;;;;;;;9.32;7.22;;;22.20;99.90;;;;;;5009918;28;20196;-81
2022/08/05 06:23:59;;;;;;;12.27;7.82;;;22.30;99.90;;;;;;5006014;28;20215;-82
2022/08/05 06:26:28;;;;;;;11.50;8.68;;;22.30;99.90;;;;;;5009150;28;20250;-81
2022/08/05 06:28:56;;;;;;;10.60;9.23;;;22.30;99.90;;;;;;5012124;28;20200;-81
2022/08/05 06:31:27;;;;;;;13.90;10.27;;;22.20;99.90;;;;;;5012349;28;20215;-81
2022/08/05 06:34:05;;;;;;;10.90;8.18;;;22.10;99.90;;;;;;5012286;28;20204;-81
2022/08/05 06:36:32;;;;;;;11.77;8.27;;;21.90;99.90;;;;;;5013015;28;20242;-81
2022/08/05 06:39:14;;;;;;;9.57;8.48;;;22.00;99.90;;;;;;5015733;28;20219;-81
2022/08/05 06:41:44;;;;;;;8.88;8.00;;;22.10;99.90;;;;;;5010710;28;20204;-82
2022/08/05 06:44:13;;;;;;;9.18;7.15;;;22.10;99.90;;;;;;5024475;28;20195;-81
2022/08/05 06:46:40;;;;;;;9.50;7.40;;;22.20;99.90;;;;;;5011331;28;20224;-81
2022/08/05 06:49:14;;;;;;;10.82;9.13;;;22.20;99.90;;;;;;5002667;28;20788;-83
2022/08/05 06:51:42;;;;;;;10.75;9.65;;;22.00;99.90;;;;;;5009207;28;20205;-81
2022/08/05 06:54:09;;;;;;;10.15;8.45;;;21.50;99.90;;;;;;5028992;28;20214;-83
2022/08/05 06:56:38;;;;;;;9.88;8.15;;;21.40;99.90;;;;;;5022425;28;20281;-82
2022/08/05 06:59:08;;;;;;;10.50;8.43;;;21.40;99.90;;;;;;5006961;28;20213;-83
2022/08/05 07:01:36;;;;;;;9.82;8.63;;;21.10;99.90;;;;;;5012199;28;20203;-81
2022/08/05 07:04:06;;;;;;;12.32;9.00;;;20.80;99.90;;;;;;5002994;28;20196;-82
2022/08/05 07:06:35;;;;;;;10.63;9.52;;;20.70;99.90;;;;;;5022190;28;20230;-83
2022/08/05 07:09:04;;;;;;;11.52;9.32;;;20.70;99.90;;;;;;5014316;28;20222;-83
2022/08/05 07:11:34;;;;;;;12.13;9.60;;;20.80;99.90;;;;;;5010293;28;20222;-85
2022/08/05 07:16:50;;;;;;;50.90;23.85;;;20.80;99.90;;;;;;5009717;28;20226;-83
2022/08/05 07:19:19;;;;;;;73.75;29.25;;;20.90;99.90;;;;;;5008319;28;20204;-83
2022/08/05 07:21:49;;;;;;;16.25;12.02;;;21.10;99.90;;;;;;5012872;28;20203;-83
2022/08/05 07:24:18;;;;;;;13.15;9.52;;;20.80;99.90;;;;;;5011886;28;20204;-83
2022/08/05 07:26:46;;;;;;;27.85;14.10;;;20.50;99.90;;;;;;5009486;28;20227;-83
2022/08/05 07:29:15;;;;;;;20.65;10.43;;;20.70;99.90;;;;;;5009272;28;20225;-83
2022/08/05 07:31:51;;;;;;;13.98;9.30;;;20.60;99.90;;;;;;5011703;28;20203;-81
2022/08/05 07:34:19;;;;;;;10.75;8.93;;;20.40;99.90;;;;;;5005494;28;20196;-81
2022/08/05 07:36:47;;;;;;;9.50;8.02;;;20.40;99.90;;;;;;5008828;28;20235;-82
2022/08/05 07:39:25;;;;;;;10.18;8.05;;;20.10;99.90;;;;;;5012320;28;20214;-82
2022/08/05 07:41:53;;;;;;;10.30;7.38;;;20.30;99.90;;;;;;5013706;28;20213;-83
2022/08/05 07:44:20;;;;;;;8.13;6.80;;;20.60;99.90;;;;;;5007361;28;20207;-83
2022/08/05 07:46:48;;;;;;;7.00;5.50;;;20.70;99.90;;;;;;5023284;28;20219;-83
2022/08/05 07:49:19;;;;;;;7.72;5.80;;;20.70;99.90;;;;;;5007624;28;20212;-84
2022/08/05 07:51:47;;;;;;;7.13;5.75;;;21.00;99.90;;;;;;5013612;28;20203;-82
2022/08/05 07:54:15;;;;;;;8.07;6.00;;;20.60;99.90;;;;;;5009989;28;20204;-82
2022/08/05 07:56:42;;;;;;;7.25;5.75;;;20.40;99.90;;;;;;5018093;28;20226;-82
2022/08/05 07:59:10;;;;;;;5.88;4.90;;;20.50;99.90;;;;;;5015926;28;20207;-82
2022/08/05 08:01:37;;;;;;;6.15;5.30;;;20.30;99.90;;;;;;5021635;28;20206;-82
2022/08/05 08:04:05;;;;;;;6.03;5.40;;;20.30;99.90;;;;;;5014307;28;20196;-82
2022/08/05 08:06:33;;;;;;;6.20;5.28;;;20.20;99.90;;;;;;5015425;28;20235;-82
2022/08/05 08:09:01;;;;;;;6.65;5.15;;;20.30;99.90;;;;;;5018894;28;20203;-82
2022/08/05 08:11:29;;;;;;;8.07;6.03;;;20.20;99.90;;;;;;5017588;28;20207;-82
2022/08/05 08:13:56;;;;;;;7.85;6.15;;;20.00;99.90;;;;;;5017385;28;20701;-82
2022/08/05 08:16:24;;;;;;;9.35;5.80;;;19.80;99.90;;;;;;5015770;28;20219;-82
2022/08/05 08:18:51;;;;;;;7.85;5.53;;;19.60;99.90;;;;;;5029653;28;20188;-82
2022/08/05 08:21:19;;;;;;;7.78;5.40;;;19.60;99.90;;;;;;5016816;28;20203;-82
2022/08/05 08:23:48;;;;;;;6.13;4.85;;;19.80;99.90;;;;;;5008376;28;20210;-82
2022/08/05 08:26:15;;;;;;;6.97;4.72;;;19.90;99.90;;;;;;5020772;28;20504;-82
2022/08/05 08:28:43;;;;;;;9.27;7.47;;;19.90;99.90;;;;;;5032802;28;20226;-82
2022/08/05 08:31:10;;;;;;;8.15;5.70;;;19.80;99.90;;;;;;5015856;28;20203;-82
2022/08/05 08:33:38;;;;;;;6.13;4.78;;;19.90;99.90;;;;;;5016420;28;20200;-82
2022/08/05 08:36:07;;;;;;;4.88;4.40;;;20.00;99.90;;;;;;5016304;28;20228;-82
2022/08/05 08:38:34;;;;;;;5.07;4.00;;;19.90;99.90;;;;;;5015058;28;20196;-82
2022/08/05 08:41:06;;;;;;;4.90;3.67;;;19.70;99.90;;;;;;5010713;28;20207;-82
2022/08/05 08:43:36;;;;;;;4.55;4.00;;;19.70;99.90;;;;;;5017453;28;20206;-82
2022/08/05 08:46:05;;;;;;;6.07;4.10;;;19.70;99.90;;;;;;5015919;28;20231;-82
2022/08/05 08:48:34;;;;;;;5.85;3.95;;;19.70;99.90;;;;;;5016828;28;20222;-82
2022/08/05 08:51:03;;;;;;;5.72;3.72;;;20.00;99.90;;;;;;5014847;28;20215;-82
2022/08/05 08:53:36;;;;;;;5.55;4.38;;;20.10;99.90;;;;;;5012281;28;20204;-82
2022/08/05 08:56:06;;;;;;;5.90;4.40;;;19.80;99.90;;;;;;5013845;28;20750;-82
2022/08/05 08:58:33;;;;;;;6.57;4.15;;;19.70;99.90;;;;;;5028133;28;20195;-82
2022/08/05 09:01:01;;;;;;;5.63;3.83;;;19.80;99.90;;;;;;5015428;28;20219;-82
2022/08/05 09:03:28;;;;;;;5.65;4.38;;;20.00;99.90;;;;;;5003769;28;20208;-82
2022/08/05 09:05:56;;;;;;;6.93;4.38;;;19.90;99.90;;;;;;5016652;28;20235;-82
2022/08/05 09:08:24;;;;;;;6.88;4.25;;;20.00;99.90;;;;;;5016782;28;20591;-83
2022/08/05 09:10:52;;;;;;;5.30;4.40;;;20.10;99.90;;;;;;5016589;28;20199;-82
2022/08/05 09:13:21;;;;;;;5.00;4.38;;;20.10;99.90;;;;;;5016950;28;20207;-83
2022/08/05 09:15:48;;;;;;;4.82;3.90;;;20.10;99.90;;;;;;5017530;28;20234;-83
2022/08/05 09:18:16;;;;;;;5.78;4.28;;;20.00;99.90;;;;;;5033737;28;20192;-83
2022/08/05 09:20:45;;;;;;;6.53;4.35;;;20.20;99.90;;;;;;5015851;28;20191;-82
2022/08/05 09:23:16;;;;;;;5.80;3.70;;;20.30;99.90;;;;;;5010059;28;20197;-84
2022/08/05 09:25:46;;;;;;;9.45;4.53;;;20.40;99.90;;;;;;4994695;28;20220;-84
2022/08/05 09:28:16;;;;;;;4.60;3.72;;;20.30;99.90;;;;;;5005957;28;20222;-84
2022/08/05 09:30:54;;;;;;;7.13;3.58;;;20.40;99.90;;;;;;5014609;28;20225;-84
2022/08/05 09:33:22;;;;;;;5.90;3.80;;;20.50;99.90;;;;;;5013919;28;20211;-84
2022/08/05 09:35:58;;;;;;;4.50;3.25;;;20.60;99.90;;;;;;5014484;28;20235;-84
2022/08/05 09:38:26;;;;;;;4.47;3.58;;;20.60;99.90;;;;;;5013289;28;20203;-84
2022/08/05 09:41:01;;;;;;;5.15;3.70;;;20.60;99.90;;;;;;5015290;28;20210;-84
2022/08/05 09:43:33;;;;;;;5.05;3.28;;;20.70;99.90;;;;;;5014046;28;20199;-84
2022/08/05 09:46:04;;;;;;;6.35;3.40;;;20.80;99.90;;;;;;5013422;28;20223;-84
2022/08/05 09:48:33;;;;;;;5.55;3.13;;;20.70;99.90;;;;;;5012531;28;20210;-84
2022/08/05 09:51:02;;;;;;;4.43;3.33;;;20.50;99.90;;;;;;4994035;28;20197;-84
2022/08/05 09:53:31;;;;;;;5.68;3.45;;;20.40;99.90;;;;;;4994215;28;20197;-84
2022/08/05 09:56:00;;;;;;;5.75;3.67;;;20.30;99.90;;;;;;5017272;28;20242;-84
2022/08/05 09:58:28;;;;;;;6.25;2.80;;;20.20;99.90;;;;;;5026420;28;20191;-84
2022/08/05 10:00:59;;;;;;;4.55;3.03;;;20.30;99.90;;;;;;5013674;28;20685;-84
2022/08/05 10:03:29;;;;;;;5.05;2.92;;;20.40;99.90;;;;;;5013431;28;20558;-84
2022/08/05 10:06:08;;;;;;;5.20;3.00;;;20.10;99.90;;;;;;5013511;28;20216;-84
2022/08/05 10:08:37;;;;;;;5.32;2.85;;;20.10;99.90;;;;;;5008651;28;20215;-84
2022/08/05 10:11:14;;;;;;;5.45;3.40;;;20.30;99.90;;;;;;5013595;28;20196;-84
2022/08/05 10:13:42;;;;;;;4.88;3.33;;;20.30;99.90;;;;;;5012360;28;20224;-84
2022/08/05 10:16:29;;;;;;;4.43;2.78;;;20.40;99.90;;;;;;5014311;28;20215;-84
2022/08/05 10:18:59;;;;;;;3.67;3.05;;;20.50;99.90;;;;;;5021555;28;20207;-84
2022/08/05 10:21:27;;;;;;;4.78;3.83;;;20.60;99.90;;;;;;5012547;28;20566;-84
2022/08/05 10:23:55;;;;;;;5.03;3.30;;;20.50;99.90;;;;;;5013218;28;20199;-83
2022/08/05 10:26:23;;;;;;;5.25;3.15;;;20.40;99.90;;;;;;5011800;28;20219;-84
2022/08/05 10:28:51;;;;;;;4.13;2.83;;;20.40;99.90;;;;;;5012699;28;20249;-84
2022/08/05 10:31:18;;;;;;;4.93;2.85;;;20.40;99.90;;;;;;5013197;28;20218;-84
2022/08/05 10:33:46;;;;;;;7.40;3.67;;;20.60;99.90;;;;;;5014955;28;20187;-84
2022/08/05 10:36:15;;;;;;;3.72;2.67;;;20.70;99.90;;;;;;5028872;28;20234;-84
2022/08/05 10:38:46;;;;;;;4.47;3.20;;;20.60;99.90;;;;;;5011343;28;20200;-84
2022/08/05 10:41:26;;;;;;;6.03;3.05;;;20.70;99.90;;;;;;5006265;28;20654;-83
2022/08/05 10:44:12;;;;;;;3.15;2.88;;;20.70;99.90;;;;;;5030091;28;20203;-82
2022/08/05 10:46:46;;;;;;;5.13;3.25;;;20.90;99.90;;;;;;5012232;28;20693;-82
2022/08/05 10:49:14;;;;;;;3.72;2.50;;;21.20;99.90;;;;;;5014998;28;20208;-83
2022/08/05 10:51:47;;;;;;;4.30;3.47;;;21.70;99.90;;;;;;5013110;28;20203;-82
2022/08/05 10:54:17;;;;;;;5.40;3.08;;;22.10;99.90;;;;;;5012159;28;20202;-81
2022/08/05 10:56:47;;;;;;;4.57;2.78;;;22.00;99.90;;;;;;5010252;28;20575;-82
2022/08/05 10:59:26;;;;;;;3.63;2.80;;;21.80;99.90;;;;;;5014424;28;20202;-82
2022/08/05 11:02:08;;;;;;;7.13;4.25;;;21.90;99.90;;;;;;5016098;28;20195;-81
2022/08/05 11:04:43;;;;;;;8.13;4.15;;;21.40;99.90;;;;;;5027450;28;20195;-81
2022/08/05 11:07:15;;;;;;;6.38;3.47;;;21.10;99.90;;;;;;5012437;28;20223;-82
2022/08/05 11:09:47;;;;;;;3.47;3.03;;;21.40;99.90;;;;;;5012143;28;20600;-83
2022/08/05 11:12:45;;;;;;;4.95;3.17;;;21.80;99.90;;;;;;5011953;28;20204;-82
2022/08/05 11:15:23;;;;;;;3.20;2.33;;;21.80;99.90;;;;;;5013068;28;20195;-82
2022/08/05 11:17:51;;;;;;;3.15;2.50;;;22.10;99.90;;;;;;5010002;28;20688;-81
2022/08/05 11:20:39;;;;;;;5.03;2.53;;;22.60;99.90;;;;;;5019824;28;20230;-82
2022/08/05 11:23:27;;;;;;;2.28;2.08;;;22.40;99.90;;;;;;5012004;28;20194;-81
2022/08/05 11:26:06;;;;;;;3.63;2.10;;;22.90;99.90;;;;;;5025460;28;20223;-82
2022/08/05 11:28:44;;;;;;;3.65;2.00;;;22.90;99.90;;;;;;5026374;28;20211;-82
2022/08/05 11:31:35;;;;;;;4.53;2.70;;;22.60;99.90;;;;;;5010844;28;20222;-81
2022/08/05 11:34:08;;;;;;;2.35;2.15;;;22.80;99.90;;;;;;5010687;28;20203;-82
2022/08/05 11:36:43;;;;;;;5.82;2.45;;;22.70;99.90;;;;;;5028364;28;20238;-81
2022/08/05 11:39:48;;;;;;;3.08;2.17;;;22.70;99.90;;;;;;5009682;28;20198;-82
2022/08/05 11:42:24;;;;;;;3.95;2.30;;;23.20;99.90;;;;;;5013186;28;20578;-82
2022/08/05 11:44:52;;;;;;;2.95;2.38;;;23.60;99.90;;;;;;5011774;28;20549;-82
2022/08/05 11:47:24;;;;;;;4.50;2.42;;;23.10;99.90;;;;;;5011152;28;20588;-81
2022/08/05 11:49:57;;;;;;;3.08;2.28;;;23.50;99.90;;;;;;5012176;28;20250;-82
2022/08/05 11:52:26;;;;;;;3.42;2.38;;;23.70;99.90;;;;;;5012195;28;20203;-82
2022/08/05 11:54:54;;;;;;;6.00;2.65;;;23.50;99.90;;;;;;5011324;28;20590;-83
2022/08/05 11:57:28;;;;;;;4.60;2.40;;;23.70;99.50;;;;;;5010781;28;20238;-83
2022/08/05 11:59:57;;;;;;;4.05;2.58;;;23.50;99.90;;;;;;5025125;28;20191;-83
2022/08/05 12:02:27;;;;;;;3.63;2.53;;;23.40;99.90;;;;;;5011419;28;20196;-83
2022/08/05 12:04:55;;;;;;;4.15;3.10;;;23.30;99.90;;;;;;5026064;28;20203;-83
2022/08/05 12:07:23;;;;;;;4.78;2.92;;;23.30;99.90;;;;;;5019722;28;20222;-82
2022/08/05 12:09:56;;;;;;;3.20;2.90;;;23.30;99.40;;;;;;5027351;28;20218;-83
2022/08/05 12:12:28;;;;;;;2.97;2.58;;;23.30;99.90;;;;;;5010993;28;20214;-83
2022/08/05 12:14:56;;;;;;;5.50;2.92;;;23.30;99.90;;;;;;5027167;28;20198;-82
2022/08/05 12:17:26;;;;;;;3.30;2.78;;;23.50;99.90;;;;;;5008148;28;20219;-83
2022/08/05 12:19:56;;;;;;;4.10;3.03;;;24.00;99.90;;;;;;5010965;28;20200;-83
2022/08/05 12:22:27;;;;;;;4.25;2.72;;;24.30;99.90;;;;;;5010942;28;20211;-83
2022/08/05 12:24:56;;;;;;;4.40;3.00;;;24.50;98.80;;;;;;5011386;28;20215;-83
2022/08/05 12:27:26;;;;;;;4.10;3.58;;;24.30;98.50;;;;;;5011231;28;20223;-82
2022/08/05 12:30:02;;;;;;;3.50;3.20;;;23.80;98.90;;;;;;5009329;28;20677;-83
2022/08/05 12:32:32;;;;;;;3.28;2.90;;;23.80;99.80;;;;;;5008360;28;20200;-83
2022/08/05 12:35:00;;;;;;;3.60;3.30;;;23.70;99.90;;;;;;5011269;28;20215;-83
2022/08/05 12:37:28;;;;;;;5.75;4.38;;;23.30;99.90;;;;;;5029818;28;20394;-82
2022/08/05 12:39:57;;;;;;;4.10;3.70;;;23.10;99.90;;;;;;5015251;28;20200;-83
2022/08/05 12:42:29;;;;;;;4.18;3.60;;;23.40;99.90;;;;;;5015277;28;20562;-83
2022/08/05 12:45:02;;;;;;;4.47;3.85;;;23.30;99.90;;;;;;5007101;28;20215;-83
2022/08/05 12:47:30;;;;;;;4.05;3.55;;;23.70;99.90;;;;;;5022987;28;20203;-83
2022/08/05 12:49:59;;;;;;;4.70;4.00;;;23.50;99.90;;;;;;5022834;28;20722;-83
2022/08/05 12:52:27;;;;;;;4.95;4.40;;;23.30;99.90;;;;;;5015310;28;20662;-83
2022/08/05 12:54:56;;;;;;;4.97;3.60;;;23.50;99.90;;;;;;5015397;28;20215;-83
2022/08/05 12:57:24;;;;;;;3.97;3.28;;;23.30;99.90;;;;;;5013411;28;20219;-85
2022/08/05 12:59:54;;;;;;;6.50;3.72;;;23.30;99.90;;;;;;5013977;28;20577;-83
2022/08/05 13:02:27;;;;;;;4.65;3.40;;;23.20;99.70;;;;;;5014578;28;20196;-83
2022/08/05 13:04:56;;;;;;;3.85;3.10;;;23.00;99.90;;;;;;5014214;28;20287;-83